Time;durP1;ratioP1;P1;durP2;ratioP2;P2;SDS_P1;SDS_P2;PMS_P1;PMS_P2;Temp;Humidity;BMP_temperature;BMP_pressure;BME280_temperature;BME280_humidity;BME280_pressure;Samples;Min_cycle;Max_cycle;Signal;HPM_P1;HPM_P2
2023/11/14 00:01:56;;;;;;;2.25;1.30;;;;;;;19.40;59.28;98710.34;5093338;28;20114;-47
2023/11/14 00:04:22;;;;;;;4.68;0.98;;;;;;;19.37;59.49;98681.59;5093325;28;20024;-47
2023/11/14 00:06:48;;;;;;;2.88;0.98;;;;;;;19.42;59.56;98704.75;5092932;28;20030;-47
2023/11/14 00:09:13;;;;;;;2.97;2.03;;;;;;;19.45;59.47;98688.28;5093201;28;20024;-47
2023/11/14 00:11:41;;;;;;;2.53;1.33;;;;;;;19.48;59.19;98703.75;5093067;28;20028;-47
2023/11/14 00:14:07;;;;;;;4.90;3.85;;;;;;;19.44;59.48;98698.13;5093626;28;20055;-47
2023/11/14 00:16:32;;;;;;;6.50;2.25;;;;;;;19.40;59.66;98694.38;5091697;28;20062;-47
2023/11/14 00:18:58;;;;;;;5.85;1.77;;;;;;;19.38;59.67;98701.00;5092998;28;20062;-47
2023/11/14 00:21:24;;;;;;;4.45;2.35;;;;;;;19.37;60.35;98692.22;5092926;28;20024;-47
2023/11/14 00:23:50;;;;;;;4.57;3.40;;;;;;;19.32;60.63;98697.53;5091620;28;20093;-47
2023/11/14 00:26:16;;;;;;;31.27;28.20;;;;;;;19.33;60.94;98691.13;5091528;28;20105;-47
2023/11/14 00:28:42;;;;;;;15.38;13.88;;;;;;;19.31;60.98;98703.91;5092902;28;20545;-47
2023/11/14 00:31:08;;;;;;;6.47;5.72;;;;;;;19.30;61.08;98732.38;5091656;28;20073;-47
2023/11/14 00:33:34;;;;;;;18.65;16.90;;;;;;;19.24;61.37;98706.78;5092762;28;20486;-46
2023/11/14 00:36:00;;;;;;;7.22;6.40;;;;;;;19.22;62.03;98721.41;5092652;28;20528;-47
2023/11/14 00:38:26;;;;;;;4.55;2.80;;;;;;;19.22;62.29;98727.53;5091363;28;20039;-47
2023/11/14 00:40:53;;;;;;;8.98;5.85;;;;;;;19.20;62.73;98728.84;5091569;28;20083;-47
2023/11/14 00:43:19;;;;;;;21.45;19.33;;;;;;;19.23;63.07;98731.78;5092592;28;20062;-47
2023/11/14 00:45:45;;;;;;;7.60;4.43;;;;;;;19.28;62.63;98736.38;5092521;28;20016;-47
2023/11/14 00:48:12;;;;;;;2.70;1.15;;;;;;;19.31;62.51;98714.53;5091138;28;20401;-47
2023/11/14 00:50:38;;;;;;;5.95;1.42;;;;;;;19.22;62.67;98732.06;5092376;28;20509;-47
2023/11/14 00:53:04;;;;;;;2.47;1.05;;;;;;;19.20;62.84;98731.53;5092355;28;20046;-47
2023/11/14 00:55:30;;;;;;;3.03;1.30;;;;;;;19.17;62.80;98722.16;5092376;28;20026;-46
2023/11/14 00:57:56;;;;;;;1.77;1.40;;;;;;;19.15;62.87;98716.31;5092361;28;20493;-47
2023/11/14 01:00:22;;;;;;;3.85;1.27;;;;;;;19.13;63.08;98731.72;5092299;28;20027;-47
2023/11/14 01:02:47;;;;;;;4.20;1.40;;;;;;;19.13;63.11;98710.44;5090959;28;20127;-47
2023/11/14 01:05:13;;;;;;;2.03;1.17;;;;;;;19.08;62.86;98707.75;5090807;28;20032;-47
2023/11/14 01:07:40;;;;;;;2.85;1.33;;;;;;;18.96;63.01;98714.03;5090890;28;20444;-47
2023/11/14 01:10:07;;;;;;;3.20;1.60;;;;;;;18.85;63.63;98706.22;5092062;28;20494;-47
2023/11/14 01:12:33;;;;;;;4.57;1.20;;;;;;;18.75;64.14;98715.72;5092174;28;20507;-47
2023/11/14 01:14:59;;;;;;;2.83;1.10;;;;;;;18.68;64.53;98704.47;5092025;28;20059;-47
2023/11/14 01:17:25;;;;;;;2.67;1.25;;;;;;;18.62;64.72;98717.97;5091385;28;20400;-47
2023/11/14 01:19:51;;;;;;;3.92;2.55;;;;;;;18.60;65.27;98696.97;5092054;28;20020;-47
2023/11/14 01:22:17;;;;;;;2.10;1.38;;;;;;;18.72;64.75;98708.22;5091929;28;20038;-47
2023/11/14 01:24:44;;;;;;;4.18;1.73;;;;;;;18.76;64.63;98724.50;5091622;28;20130;-47
2023/11/14 01:27:10;;;;;;;3.03;1.20;;;;;;;18.81;64.25;98710.47;5091995;28;20413;-47
2023/11/14 01:29:36;;;;;;;3.08;1.10;;;;;;;18.86;63.91;98708.66;5091929;28;20081;-47
2023/11/14 01:32:02;;;;;;;1.10;0.82;;;;;;;18.88;63.19;98703.88;5091729;28;20398;-47
2023/11/14 01:34:28;;;;;;;4.45;1.13;;;;;;;18.89;63.42;98723.28;5091940;28;20028;-47
2023/11/14 01:36:58;;;;;;;6.53;1.55;;;;;;;18.87;63.42;98706.78;5091936;28;20466;-47
2023/11/14 01:39:25;;;;;;;2.88;1.15;;;;;;;18.93;63.04;98721.72;5092234;28;20024;-47
2023/11/14 01:41:51;;;;;;;3.65;1.30;;;;;;;19.01;62.81;98718.59;5090845;28;20055;-47
2023/11/14 01:44:17;;;;;;;3.70;1.08;;;;;;;19.08;62.06;98716.53;5091765;28;20032;-47
2023/11/14 01:46:44;;;;;;;2.83;0.80;;;;;;;19.13;61.49;98707.78;5091810;28;20024;-47
2023/11/14 01:49:10;;;;;;;5.22;1.42;;;;;;;19.14;61.78;98714.72;5091991;28;20115;-47
2023/11/14 01:51:36;;;;;;;3.83;1.30;;;;;;;19.21;61.48;98715.28;5091661;28;20099;-47
2023/11/14 01:54:02;;;;;;;2.35;1.17;;;;;;;19.25;60.87;98715.56;5091735;28;20024;-47
2023/11/14 01:56:29;;;;;;;4.25;1.40;;;;;;;19.22;61.36;98724.88;5091753;28;20080;-47
2023/11/14 01:58:56;;;;;;;2.70;1.33;;;;;;;19.21;61.19;98725.91;5091594;28;20024;-47
2023/11/14 02:01:24;;;;;;;1.77;0.95;;;;;;;19.15;60.99;98721.63;5091616;28;20035;-47
2023/11/14 02:03:50;;;;;;;1.65;1.08;;;;;;;19.16;60.89;98707.28;5090294;28;20055;-47
2023/11/14 02:06:16;;;;;;;2.78;1.10;;;;;;;19.14;61.18;98725.34;5091603;28;20043;-47
2023/11/14 02:08:42;;;;;;;4.38;1.20;;;;;;;19.14;61.09;98699.53;5091585;28;20028;-47
2023/11/14 02:11:08;;;;;;;4.57;1.27;;;;;;;19.15;60.88;98713.63;5091461;28;20055;-47
2023/11/14 02:13:34;;;;;;;2.50;1.38;;;;;;;19.19;60.98;98714.72;5091551;28;20088;-47
2023/11/14 02:16:00;;;;;;;3.05;1.00;;;;;;;19.20;61.12;98718.22;5091446;28;20017;-47
2023/11/14 02:18:26;;;;;;;4.03;1.10;;;;;;;19.18;60.95;98715.81;5090125;28;20061;-47
2023/11/14 02:20:51;;;;;;;4.97;1.48;;;;;;;19.18;60.82;98715.81;5091463;28;20540;-47
2023/11/14 02:23:19;;;;;;;3.25;1.08;;;;;;;19.18;60.97;98715.00;5091356;28;20555;-47
2023/11/14 02:25:45;;;;;;;2.65;0.90;;;;;;;19.16;60.80;98710.72;5091110;28;20051;-47
2023/11/14 02:28:11;;;;;;;2.80;1.55;;;;;;;19.18;60.61;98729.09;5090094;28;20021;-47
2023/11/14 02:30:38;;;;;;;4.03;1.48;;;;;;;19.13;60.96;98713.09;5093561;28;20511;-47
2023/11/14 02:33:07;;;;;;;5.47;1.42;;;;;;;19.07;61.22;98706.13;5093719;28;20024;-47
2023/11/14 02:35:33;;;;;;;4.22;1.52;;;;;;;19.02;61.56;98719.41;5095020;28;20035;-47
2023/11/14 02:37:59;;;;;;;4.28;1.10;;;;;;;19.03;61.64;98713.81;5094982;28;20020;-47
2023/11/14 02:40:26;;;;;;;5.05;1.20;;;;;;;19.07;61.58;98716.78;5093632;28;20028;-47
2023/11/14 02:42:53;;;;;;;4.43;1.35;;;;;;;19.07;61.68;98719.44;5094899;28;20016;-47
2023/11/14 02:45:19;;;;;;;4.07;1.27;;;;;;;19.10;61.84;98710.97;5094762;28;20506;-47
2023/11/14 02:47:45;;;;;;;4.20;1.20;;;;;;;19.10;61.47;98716.28;5094859;28;20069;-47
2023/11/14 02:50:26;;;;;;;3.50;1.52;;;;;;;19.05;61.81;98732.19;5094613;28;20043;-47
2023/11/14 02:52:52;;;;;;;2.63;1.23;;;;;;;19.05;62.44;98726.88;5094750;28;20024;-47
2023/11/14 02:55:18;;;;;;;3.30;1.25;;;;;;;19.16;61.66;98734.69;5094624;28;20154;-47
2023/11/14 02:57:44;;;;;;;4.15;1.70;;;;;;;19.17;61.78;98735.47;5094634;28;20022;-47
2023/11/14 03:00:15;;;;;;;3.15;1.20;;;;;;;19.18;61.53;98726.44;5094793;28;20039;-47
2023/11/14 03:02:43;;;;;;;4.63;1.08;;;;;;;19.11;62.21;98723.97;5094625;28;20436;-47
2023/11/14 03:05:09;;;;;;;2.97;1.20;;;;;;;19.12;62.27;98717.63;5094378;28;20120;-47
2023/11/14 03:07:35;;;;;;;3.38;1.77;;;;;;;19.19;62.04;98721.91;5094469;28;20472;-47
2023/11/14 03:10:04;;;;;;;4.40;2.72;;;;;;;19.19;62.28;98706.75;5093092;28;20035;-47
2023/11/14 03:12:30;;;;;;;5.78;2.20;;;;;;;19.22;62.54;98700.13;5093062;28;20050;-47
2023/11/14 03:14:56;;;;;;;1.52;0.82;;;;;;;19.33;62.05;98707.09;5092942;28;20485;-46
2023/11/14 03:17:21;;;;;;;5.50;1.35;;;;;;;19.37;62.02;98713.53;5094269;28;20054;-47
2023/11/14 03:19:47;;;;;;;2.08;0.90;;;;;;;19.41;61.57;98713.81;5094266;28;20549;-47
2023/11/14 03:22:14;;;;;;;3.58;1.20;;;;;;;19.35;61.87;98705.78;5094417;28;20114;-47
2023/11/14 03:24:40;;;;;;;4.45;1.40;;;;;;;19.38;61.76;98711.66;5092397;28;20529;-47
2023/11/14 03:27:07;;;;;;;6.13;2.53;;;;;;;19.34;61.67;98698.09;5094036;28;20040;-47
2023/11/14 03:29:33;;;;;;;1.67;1.23;;;;;;;19.31;61.82;98686.06;5094600;28;20089;-47
2023/11/14 03:31:59;;;;;;;3.42;1.02;;;;;;;19.31;61.99;98677.28;5093862;28;20051;-47
2023/11/14 03:34:25;;;;;;;3.13;1.10;;;;;;;19.30;61.86;98695.13;5093902;28;20486;-47
2023/11/14 03:36:53;;;;;;;1.33;0.77;;;;;;;19.28;61.91;98680.47;5093859;28;20410;-47
2023/11/14 03:39:19;;;;;;;2.47;1.00;;;;;;;19.26;61.94;98686.06;5093835;28;20055;-47
2023/11/14 03:41:45;;;;;;;2.53;1.13;;;;;;;19.19;62.20;98682.81;5093080;28;20052;-47
2023/11/14 03:44:12;;;;;;;3.13;1.13;;;;;;;19.21;62.27;98688.66;5093721;28;20085;-47
2023/11/14 03:46:39;;;;;;;4.65;1.90;;;;;;;19.20;62.35;98681.75;5093647;28;20529;-47
2023/11/14 03:49:05;;;;;;;3.50;1.27;;;;;;;19.25;62.49;98662.34;5093618;28;20055;-47
2023/11/14 03:51:31;;;;;;;2.45;1.20;;;;;;;19.28;62.27;98652.00;5093470;28;20020;-47
2023/11/14 03:53:57;;;;;;;5.40;2.80;;;;;;;19.31;61.76;98664.00;5092196;28;20034;-47
2023/11/14 03:56:23;;;;;;;4.15;1.58;;;;;;;19.22;62.46;98645.06;5093474;28;20024;-47
2023/11/14 03:58:49;;;;;;;2.03;1.08;;;;;;;19.21;62.59;98648.75;5093458;28;20031;-47
2023/11/14 04:01:16;;;;;;;2.78;1.60;;;;;;;19.25;62.71;98644.53;5093383;28;20024;-47
2023/11/14 04:03:43;;;;;;;2.10;1.15;;;;;;;19.20;62.84;98649.03;5093374;28;20019;-47
2023/11/14 04:06:13;;;;;;;1.50;0.90;;;;;;;19.15;63.32;98639.94;5091887;28;20034;-47
2023/11/14 04:08:39;;;;;;;2.75;1.20;;;;;;;19.18;63.30;98636.00;5093170;28;20489;-47
2023/11/14 04:11:12;;;;;;;2.25;1.15;;;;;;;19.23;63.20;98643.97;5093055;28;20061;-47
2023/11/14 04:13:39;;;;;;;2.40;1.05;;;;;;;19.26;63.10;98648.81;5093162;28;20108;-47
2023/11/14 04:16:05;;;;;;;3.15;0.90;;;;;;;19.22;63.12;98654.91;5093286;28;20027;-47
2023/11/14 04:18:31;;;;;;;4.18;1.17;;;;;;;19.23;63.15;98653.84;5093029;28;20017;-47
2023/11/14 04:20:58;;;;;;;3.13;1.00;;;;;;;19.22;63.35;98654.91;5091786;28;20111;-47
2023/11/14 04:23:24;;;;;;;2.30;1.00;;;;;;;19.18;63.53;98648.50;5092869;28;20020;-47
2023/11/14 04:25:50;;;;;;;2.95;0.95;;;;;;;19.15;63.77;98657.78;5092665;28;20518;-47
2023/11/14 04:28:16;;;;;;;1.88;0.95;;;;;;;19.10;64.09;98657.75;5092885;28;20034;-47
2023/11/14 04:30:42;;;;;;;1.48;0.88;;;;;;;19.19;63.92;98655.41;5092740;28;20020;-47
2023/11/14 04:33:07;;;;;;;2.13;1.00;;;;;;;19.26;63.72;98674.63;5092784;28;20459;-47
2023/11/14 04:35:33;;;;;;;2.92;0.85;;;;;;;19.28;63.74;98667.97;5092723;28;20028;-47
2023/11/14 04:37:59;;;;;;;1.92;0.82;;;;;;;19.33;63.14;98673.31;5091307;28;20035;-47
2023/11/14 04:40:25;;;;;;;4.30;1.50;;;;;;;19.28;63.37;98675.16;5092683;28;20024;-47
2023/11/14 04:42:52;;;;;;;7.68;5.18;;;;;;;19.31;63.45;98669.31;5092621;28;20016;-47
2023/11/14 04:45:18;;;;;;;3.85;1.10;;;;;;;19.35;63.27;98655.22;5091346;28;20028;-47
2023/11/14 04:47:44;;;;;;;1.17;0.85;;;;;;;19.43;62.77;98661.91;5091223;28;20379;-47
2023/11/14 04:50:10;;;;;;;3.53;1.50;;;;;;;19.44;62.76;98676.06;5092630;28;20106;-47
2023/11/14 04:52:36;;;;;;;1.38;1.10;;;;;;;19.46;62.43;98671.28;5091535;28;20085;-47
2023/11/14 04:55:04;;;;;;;1.55;1.00;;;;;;;19.46;62.71;98656.09;5092344;28;20020;-47
2023/11/14 04:57:30;;;;;;;2.67;1.38;;;;;;;19.39;62.48;98647.53;5092400;28;20101;-47
2023/11/14 04:59:56;;;;;;;3.55;1.23;;;;;;;19.35;62.94;98659.75;5091000;28;20028;-47
2023/11/14 05:02:24;;;;;;;5.88;1.15;;;;;;;19.34;62.95;98650.19;5092319;28;20448;-47
2023/11/14 05:04:50;;;;;;;3.15;1.30;;;;;;;19.32;63.25;98654.97;5092198;28;20051;-47
2023/11/14 05:07:16;;;;;;;2.08;1.13;;;;;;;19.38;63.18;98658.44;5092236;28;20055;-47
2023/11/14 05:09:42;;;;;;;2.70;0.90;;;;;;;19.45;62.78;98640.38;5091025;28;20040;-47
2023/11/14 05:12:08;;;;;;;3.42;0.95;;;;;;;19.44;62.30;98644.91;5090692;28;20033;-47
2023/11/14 05:14:34;;;;;;;4.28;0.90;;;;;;;19.41;62.46;98640.09;5092147;28;20019;-47
2023/11/14 05:17:00;;;;;;;1.73;0.80;;;;;;;19.40;62.53;98651.81;5092063;28;20016;-47
2023/11/14 05:19:29;;;;;;;3.30;0.82;;;;;;;19.40;62.49;98648.31;5092076;28;20077;-47
2023/11/14 05:21:55;;;;;;;1.50;0.77;;;;;;;19.42;62.66;98663.00;5091973;28;20035;-47
2023/11/14 05:24:20;;;;;;;3.58;0.82;;;;;;;19.44;62.28;98665.41;5091733;28;20020;-47
2023/11/14 05:26:47;;;;;;;5.07;1.30;;;;;;;19.40;62.77;98654.47;5090468;28;20135;-47
2023/11/14 05:29:13;;;;;;;2.10;0.88;;;;;;;19.47;62.63;98646.25;5091877;28;20028;-47
2023/11/14 05:31:38;;;;;;;2.50;0.80;;;;;;;19.55;62.10;98672.38;5090821;28;20502;-47
2023/11/14 05:34:04;;;;;;;1.73;0.63;;;;;;;19.56;61.93;98648.16;5091863;28;20034;-47
2023/11/14 05:36:31;;;;;;;2.13;0.80;;;;;;;19.52;61.87;98648.94;5091858;28;20020;-47
2023/11/14 05:38:56;;;;;;;1.42;0.80;;;;;;;19.50;62.35;98667.03;5091847;28;20024;-47
2023/11/14 05:41:22;;;;;;;1.58;1.10;;;;;;;19.45;62.29;98669.66;5090735;28;20025;-47
2023/11/14 05:43:48;;;;;;;2.53;0.85;;;;;;;19.45;62.56;98669.66;5090798;28;20034;-47
2023/11/14 05:46:14;;;;;;;2.00;0.65;;;;;;;19.49;62.42;98673.41;5090436;28;20390;-47
2023/11/14 05:48:40;;;;;;;1.83;0.82;;;;;;;19.44;62.50;98670.72;5091732;28;20025;-47
2023/11/14 05:51:06;;;;;;;2.78;0.90;;;;;;;19.44;62.77;98670.72;5090318;28;20431;-47
2023/11/14 05:53:32;;;;;;;4.95;2.38;;;;;;;19.50;62.60;98673.16;5091755;28;20420;-47
2023/11/14 05:55:58;;;;;;;2.42;1.00;;;;;;;19.54;62.25;98681.41;5091602;28;20024;-47
2023/11/14 05:58:24;;;;;;;2.95;0.93;;;;;;;19.53;62.09;98680.59;5091666;28;20157;-47
2023/11/14 06:00:50;;;;;;;6.38;1.98;;;;;;;19.55;62.22;98696.31;5090578;28;20027;-47
2023/11/14 06:03:16;;;;;;;7.45;1.35;;;;;;;19.60;62.52;98728.31;5091575;28;20032;-46
2023/11/14 06:05:43;;;;;;;6.72;1.35;;;;;;;19.82;65.99;98741.50;5095463;28;20062;-46
2023/11/14 06:08:08;;;;;;;6.50;1.85;;;;;;;19.77;66.33;98767.28;5095601;28;20097;-47
2023/11/14 06:10:35;;;;;;;159.05;142.70;;;;;;;19.43;67.83;98763.06;5094124;28;20117;-47
2023/11/14 06:13:02;;;;;;;18.42;10.95;;;;;;;19.27;69.77;98756.81;5094299;28;20020;-47
2023/11/14 06:15:29;;;;;;;8.25;2.63;;;;;;;19.13;71.32;98747.69;5095342;28;20024;-47
2023/11/14 06:17:55;;;;;;;12.85;4.43;;;;;;;18.99;74.19;98759.81;5095365;28;20044;-47
2023/11/14 06:20:24;;;;;;;12.73;8.32;;;;;;;18.98;75.89;98772.31;5094354;28;20060;-47
2023/11/14 06:22:50;;;;;;;7.10;2.17;;;;;;;18.88;76.97;98802.28;5093949;28;20024;-47
2023/11/14 06:25:16;;;;;;;4.60;1.48;;;;;;;18.26;78.07;98810.59;5093725;28;20450;-46
2023/11/14 06:27:43;;;;;;;6.88;1.88;;;;;;;17.68;81.31;98810.88;5095477;28;20016;-46
2023/11/14 06:30:11;;;;;;;5.38;1.60;;;;;;;17.33;84.01;98797.88;5093847;28;20031;-46
2023/11/14 06:32:37;;;;;;;3.67;1.35;;;;;;;17.11;86.71;98795.13;5095073;28;20103;-45
2023/11/14 06:35:03;;;;;;;6.43;1.65;;;;;;;16.86;88.82;98809.56;5093762;28;20123;-45
2023/11/14 06:37:29;;;;;;;7.18;1.80;;;;;;;16.70;91.13;98820.88;5095138;28;20107;-45
2023/11/14 06:39:57;;;;;;;4.85;1.27;;;;;;;16.63;93.61;98825.53;5095058;28;20016;-45
2023/11/14 06:42:23;;;;;;;2.88;1.25;;;;;;;16.63;95.22;98834.28;5093728;28;20024;-45
2023/11/14 06:44:50;;;;;;;113.07;103.90;;;;;;;16.82;97.28;98842.06;5093562;28;20494;-45
2023/11/14 06:47:16;;;;;;;35.53;31.83;;;;;;;17.18;97.28;98846.16;5093569;28;20103;-46
2023/11/14 06:49:44;;;;;;;4.95;2.13;;;;;;;17.46;96.16;98852.47;5094862;28;20016;-45
2023/11/14 06:52:11;;;;;;;3.65;3.25;;;;;;;17.81;93.97;98851.38;5094690;28;20022;-46
2023/11/14 06:54:38;;;;;;;1.73;0.80;;;;;;;18.05;93.00;98852.03;5094759;28;20145;-45
2023/11/14 06:57:05;;;;;;;2.45;1.10;;;;;;;18.21;92.54;98855.69;5094641;28;20027;-45
2023/11/14 06:59:31;;;;;;;6.57;2.08;;;;;;;18.52;91.32;98843.59;5094539;28;20032;-46
2023/11/14 07:01:57;;;;;;;44.08;40.97;;;;;;;18.61;89.77;98842.09;5094529;28;20024;-45
2023/11/14 07:04:23;;;;;;;42.47;39.42;;;;;;;18.51;90.70;98831.34;5094458;28;20028;-46
2023/11/14 07:06:49;;;;;;;4.60;4.20;;;;;;;18.20;90.43;98835.50;5093109;28;20574;-46
2023/11/14 07:09:15;;;;;;;2.25;1.40;;;;;;;18.16;92.99;98832.53;5094485;28;20024;-46
2023/11/14 07:11:44;;;;;;;1.42;1.33;;;;;;;18.19;93.23;98842.69;5094305;28;20363;-45
2023/11/14 07:14:10;;;;;;;2.05;1.25;;;;;;;18.40;92.29;98837.63;5094365;28;20019;-46
2023/11/14 07:16:36;;;;;;;2.53;0.63;;;;;;;18.50;89.29;98833.22;5092053;28;20398;-46
2023/11/14 07:19:01;;;;;;;3.90;0.50;;;;;;;18.48;88.79;98829.19;5094296;28;20039;-46
2023/11/14 07:21:32;;;;;;;6.50;2.85;;;;;;;18.49;88.72;98836.94;5094232;28;20106;-46
2023/11/14 07:23:59;;;;;;;7.97;1.00;;;;;;;18.83;88.12;98844.75;5094244;28;20431;-46
2023/11/14 07:26:24;;;;;;;1.73;1.60;;;;;;;19.13;86.61;98836.25;5093936;28;20068;-46
2023/11/14 07:28:50;;;;;;;3.25;1.20;;;;;;;19.06;85.27;98834.88;5094021;28;20103;-46
2023/11/14 07:31:19;;;;;;;0.80;0.70;;;;;;;18.79;84.47;98838.34;5092624;28;20028;-47
2023/11/14 07:33:45;;;;;;;1.23;1.00;;;;;;;18.69;85.79;98822.25;5094216;28;20016;-46
2023/11/14 07:36:11;;;;;;;2.97;0.57;;;;;;;19.05;85.75;98812.78;5094165;28;20367;-47
2023/11/14 07:38:36;;;;;;;4.28;1.10;;;;;;;19.10;84.60;98820.03;5093874;28;20463;-47
2023/11/14 07:41:02;;;;;;;6.28;5.78;;;;;;;18.95;84.66;98810.84;5093816;28;20398;-47
2023/11/14 07:43:29;;;;;;;3.15;1.10;;;;;;;18.80;84.60;98807.25;5093776;28;20018;-47
2023/11/14 07:45:55;;;;;;;3.50;0.80;;;;;;;18.73;83.96;98820.69;5093728;28;20028;-47
2023/11/14 07:48:20;;;;;;;1.15;0.60;;;;;;;18.62;83.08;98806.50;5092508;28;20024;-47
2023/11/14 07:50:46;;;;;;;1.38;0.50;;;;;;;18.46;82.01;98791.44;5093527;28;20034;-47
2023/11/14 07:53:12;;;;;;;0.95;0.70;;;;;;;18.30;81.10;98801.09;5093620;28;20397;-47
2023/11/14 07:55:38;;;;;;;2.10;1.00;;;;;;;18.15;81.18;98809.69;5092339;28;20024;-47
2023/11/14 07:58:04;;;;;;;1.70;0.52;;;;;;;18.00;81.36;98815.59;5092161;28;20024;-47
2023/11/14 08:00:31;;;;;;;3.83;0.80;;;;;;;18.14;81.93;98811.53;5093408;28;20081;-47
2023/11/14 08:02:57;;;;;;;2.53;1.00;;;;;;;18.73;81.82;98808.22;5093652;28;20360;-47
2023/11/14 08:05:22;;;;;;;2.75;0.90;;;;;;;19.32;79.29;98826.06;5093370;28;20026;-47
2023/11/14 08:07:48;;;;;;;1.48;0.57;;;;;;;19.61;77.38;98830.28;5091957;28;20073;-47
2023/11/14 08:10:16;;;;;;;1.88;0.52;;;;;;;19.61;75.93;98825.75;5091922;28;20039;-47
2023/11/14 08:12:42;;;;;;;1.05;0.50;;;;;;;19.69;75.34;98848.44;5093197;28;20521;-47
2023/11/14 08:15:08;;;;;;;0.70;0.40;;;;;;;19.71;74.13;98830.38;5091925;28;20052;-47
2023/11/14 08:17:34;;;;;;;0.75;0.60;;;;;;;19.55;73.61;98821.44;5093121;28;20027;-47
2023/11/14 08:20:00;;;;;;;3.17;0.57;;;;;;;19.22;72.91;98822.53;5093030;28;20362;-47
2023/11/14 08:22:26;;;;;;;4.65;2.65;;;;;;;18.81;72.88;98808.84;5093060;28;20024;-47
2023/11/14 08:24:52;;;;;;;3.58;1.75;;;;;;;18.34;73.54;98796.88;5091491;28;20040;-47
2023/11/14 08:27:19;;;;;;;6.95;6.35;;;;;;;17.92;75.10;98792.13;5091449;28;20048;-47
2023/11/14 08:29:45;;;;;;;5.45;2.78;;;;;;;17.58;76.51;98784.19;5091566;28;20081;-47
2023/11/14 08:32:15;;;;;;;9.50;8.70;;;;;;;17.29;78.39;98780.84;5092651;28;20052;-46
2023/11/14 08:34:41;;;;;;;4.50;3.58;;;;;;;17.08;79.73;98785.00;5092974;28;20043;-47
2023/11/14 08:37:07;;;;;;;2.03;1.60;;;;;;;16.99;81.17;98771.34;5092758;28;20529;-47
2023/11/14 08:39:32;;;;;;;4.75;1.60;;;;;;;16.99;81.42;98781.16;5091405;28;20066;-47
2023/11/14 08:41:58;;;;;;;1.25;1.05;;;;;;;16.94;81.43;98789.81;5092643;28;20020;-46
2023/11/14 08:44:24;;;;;;;1.20;0.90;;;;;;;17.03;82.19;98793.69;5092658;28;20055;-47
2023/11/14 08:46:49;;;;;;;2.00;1.25;;;;;;;17.07;81.48;98781.56;5092570;28;20492;-47
2023/11/14 08:49:15;;;;;;;3.75;3.15;;;;;;;17.09;80.67;98791.94;5091228;28;20023;-47
2023/11/14 08:51:41;;;;;;;3.08;1.70;;;;;;;16.93;81.41;98796.97;5091120;28;20462;-47
2023/11/14 08:54:06;;;;;;;1.98;1.52;;;;;;;16.88;81.56;98802.19;5092466;28;20032;-47
2023/11/14 08:56:32;;;;;;;1.70;0.90;;;;;;;16.80;81.85;98797.22;5091079;28;20025;-46
2023/11/14 08:58:58;;;;;;;2.42;1.50;;;;;;;16.73;82.60;98788.63;5091062;28;20035;-47
2023/11/14 09:01:24;;;;;;;4.90;1.88;;;;;;;16.72;82.90;98798.44;5092309;28;20028;-47
2023/11/14 09:03:50;;;;;;;4.30;2.25;;;;;;;16.73;83.43;98794.72;5092236;28;20038;-47
2023/11/14 09:06:16;;;;;;;2.33;1.50;;;;;;;16.66;84.11;98802.03;5090927;28;20024;-47
2023/11/14 09:08:42;;;;;;;3.38;1.73;;;;;;;16.49;85.54;98777.31;5092135;28;20031;-47
2023/11/14 09:11:08;;;;;;;6.07;1.85;;;;;;;16.76;88.81;98774.88;5092315;28;20024;-47
2023/11/14 09:13:34;;;;;;;1.70;1.50;;;;;;;16.74;86.78;98784.91;5091212;28;20029;-47
2023/11/14 09:16:02;;;;;;;2.53;1.27;;;;;;;16.50;88.03;98781.56;5092064;28;20422;-47
2023/11/14 09:18:28;;;;;;;2.60;1.35;;;;;;;16.78;91.43;98786.88;5092050;28;20028;-47
2023/11/14 09:20:55;;;;;;;7.30;5.45;;;;;;;17.64;91.50;98785.84;5091998;28;20030;-47
2023/11/14 09:23:21;;;;;;;2.22;1.52;;;;;;;18.42;87.53;98777.84;5091946;28;20032;-47
2023/11/14 09:25:47;;;;;;;2.67;1.17;;;;;;;18.83;84.92;98757.00;5090414;28;20044;-47
2023/11/14 09:28:14;;;;;;;2.55;1.13;;;;;;;19.22;82.44;98748.03;5090668;28;20035;-47
2023/11/14 09:30:39;;;;;;;2.63;2.42;;;;;;;19.51;80.16;98743.16;5091842;28;20028;-47
2023/11/14 09:33:05;;;;;;;5.03;4.63;;;;;;;19.68;76.39;98730.47;5091839;28;20024;-47
2023/11/14 09:35:31;;;;;;;1.40;1.27;;;;;;;19.51;71.09;98724.50;5090600;28;20081;-47
2023/11/14 09:37:57;;;;;;;1.27;0.80;;;;;;;19.11;71.94;98716.00;5092193;28;20020;-47
2023/11/14 09:40:25;;;;;;;2.80;1.20;;;;;;;18.90;73.52;98719.59;5098405;28;20028;-47
2023/11/14 09:42:51;;;;;;;4.82;1.42;;;;;;;18.76;74.29;98724.50;5098507;28;20486;-47
2023/11/14 09:45:24;;;;;;;4.13;1.77;;;;;;;19.13;76.34;98734.38;5097365;28;20020;-47
2023/11/14 09:47:50;;;;;;;2.47;1.60;;;;;;;19.64;73.37;98732.06;5098504;28;20095;-47
2023/11/14 09:50:16;;;;;;;159.27;77.97;;;;;;;19.39;72.52;98727.38;5098811;28;20569;-47
2023/11/14 09:52:42;;;;;;;132.30;80.45;;;;;;;19.19;75.63;98712.06;5098328;28;20571;-46
2023/11/14 09:55:11;;;;;;;20.95;8.20;;;;;;;18.54;77.14;98706.75;5097241;28;20060;-46
2023/11/14 09:57:38;;;;;;;9.68;5.15;;;;;;;17.98;79.19;98726.59;5098437;28;20056;-46
2023/11/14 10:00:11;;;;;;;8.80;7.88;;;;;;;17.51;81.87;98720.69;5098313;28;20510;-46
2023/11/14 10:02:40;;;;;;;8.32;4.30;;;;;;;17.13;83.60;98722.25;5098359;28;20057;-46
2023/11/14 10:05:07;;;;;;;108.85;96.97;;;;;;;17.04;86.68;98714.94;5098344;28;20027;-46
2023/11/14 10:07:34;;;;;;;10.02;8.82;;;;;;;17.46;89.44;98719.78;5098283;28;20099;-47
2023/11/14 10:10:01;;;;;;;30.27;27.73;;;;;;;17.78;87.29;98696.84;5098510;28;20028;-47
2023/11/14 10:12:34;;;;;;;27.92;25.35;;;;;;;17.66;82.62;98664.34;5096936;28;20024;-47
2023/11/14 10:15:00;;;;;;;13.07;8.98;;;;;;;17.47;82.25;98649.78;5098465;28;20043;-47
2023/11/14 10:17:38;;;;;;;8.02;6.00;;;;;;;17.62;85.58;98657.13;5098248;28;20081;-47
2023/11/14 10:20:07;;;;;;;5.70;2.60;;;;;;;18.12;86.43;98669.41;5097199;28;20032;-47
2023/11/14 10:22:34;;;;;;;104.22;90.78;;;;;;;18.84;86.91;98670.06;5098417;28;20060;-47
2023/11/14 10:25:01;;;;;;;23.73;12.23;;;;;;;19.74;85.02;98676.22;5097853;28;20044;-47
2023/11/14 10:27:33;;;;;;;20.20;3.10;;;;;;;20.61;80.94;98664.16;5098179;28;20047;-47
2023/11/14 10:29:59;;;;;;;5.40;2.47;;;;;;;21.39;76.90;98657.63;5098194;28;20469;-47
2023/11/14 10:32:25;;;;;;;6.05;2.53;;;;;;;21.76;73.23;98641.25;5096771;28;20054;-47
2023/11/14 10:34:52;;;;;;;26.45;12.35;;;;;;;22.11;70.71;98623.41;5098104;28;20504;-47
2023/11/14 10:37:33;;;;;;;14.55;5.53;;;;;;;22.44;68.51;98608.50;5098039;28;20020;-47
2023/11/14 10:40:01;;;;;;;14.80;1.98;;;;;;;22.50;66.60;98612.72;5098358;28;20016;-47
2023/11/14 10:42:27;;;;;;;5.70;2.45;;;;;;;22.42;64.78;98607.19;5098051;28;20024;-47
2023/11/14 10:45:01;;;;;;;9.50;2.13;;;;;;;22.01;63.84;98602.88;5079831;28;20439;-47
2023/11/14 10:47:38;;;;;;;11.18;1.70;;;;;;;21.73;65.80;98588.34;5098028;28;20036;-47
2023/11/14 10:50:05;;;;;;;2.45;1.40;;;;;;;21.93;65.42;98582.91;5096959;28;20024;-47
2023/11/14 10:52:36;;;;;;;9.93;3.08;;;;;;;22.13;64.45;98595.34;5094696;28;20070;-47
2023/11/14 10:55:05;;;;;;;2.70;1.70;;;;;;;22.20;63.47;98599.56;5094683;28;20528;-47
2023/11/14 10:57:32;;;;;;;15.75;3.45;;;;;;;22.30;63.20;98605.66;5093489;28;20374;-47
2023/11/14 10:59:59;;;;;;;10.82;2.10;;;;;;;22.46;63.02;98589.50;5076584;28;20403;-47
2023/11/14 11:02:32;;;;;;;5.10;1.33;;;;;;;22.58;61.88;98589.09;5094561;28;20020;-47
2023/11/14 11:05:03;;;;;;;2.97;1.25;;;;;;;22.44;61.34;98594.34;5094539;28;20026;-47
2023/11/14 11:07:29;;;;;;;2.53;1.17;;;;;;;22.04;61.67;98588.97;5094514;28;20115;-47
2023/11/14 11:09:55;;;;;;;4.35;1.70;;;;;;;21.79;63.05;98579.22;5093419;28;20114;-47
2023/11/14 11:12:23;;;;;;;11.73;5.43;;;;;;;22.13;62.79;98562.44;5094587;28;20488;-47
2023/11/14 11:14:49;;;;;;;5.35;2.20;;;;;;;22.55;61.87;98553.03;5094347;28;20077;-47
2023/11/14 11:17:41;;;;;;;4.85;1.65;;;;;;;22.89;60.52;98547.59;5094311;28;20020;-47
2023/11/14 11:20:26;;;;;;;5.18;1.48;;;;;;;22.97;59.78;98529.31;5093255;28;20486;-47
2023/11/14 11:23:13;;;;;;;6.70;3.15;;;;;;;22.91;59.66;98513.31;5094206;28;20028;-47
2023/11/14 11:25:43;;;;;;;4.15;1.60;;;;;;;22.89;59.64;98510.13;5092752;28;20036;-47
2023/11/14 11:28:28;;;;;;;4.30;1.60;;;;;;;22.90;59.82;98502.91;5092868;28;20040;-47
2023/11/14 11:31:16;;;;;;;1.77;1.40;;;;;;;22.93;59.41;98487.06;5092705;28;20440;-47